createdAt,value
2023-02-16T00:01:53.260Z,6.40
2023-02-16T00:04:30.118Z,6.40
2023-02-16T00:06:57.692Z,6.40
2023-02-16T00:09:25.025Z,6.30
2023-02-16T00:12:11.723Z,6.40
2023-02-16T00:14:39.139Z,6.40
2023-02-16T00:17:06.062Z,6.40
2023-02-16T00:19:37.162Z,6.40
2023-02-16T00:22:05.925Z,6.30
2023-02-16T00:24:32.780Z,6.30
2023-02-16T00:27:00.137Z,6.30
2023-02-16T00:29:28.659Z,6.20
2023-02-16T00:31:56.850Z,6.10
2023-02-16T00:34:26.692Z,6.10
2023-02-16T00:36:54.389Z,6.10
2023-02-16T00:39:21.461Z,6.10
2023-02-16T00:41:51.568Z,6.10
2023-02-16T00:44:21.165Z,6.10
2023-02-16T00:46:48.238Z,6.20
2023-02-16T00:49:18.959Z,6.20
2023-02-16T00:51:45.833Z,6.20
2023-02-16T00:54:13.228Z,6.30
2023-02-16T00:56:40.724Z,6.20
2023-02-16T00:59:09.231Z,6.20
2023-02-16T01:01:36.906Z,6.20
2023-02-16T01:04:06.127Z,6.20
2023-02-16T01:06:51.609Z,6.20
2023-02-16T01:09:38.083Z,6.10
2023-02-16T01:12:08.594Z,6.10
2023-02-16T01:14:35.680Z,6.00
2023-02-16T01:17:02.570Z,6.00
2023-02-16T01:19:29.723Z,6.00
2023-02-16T01:21:57.500Z,5.80
2023-02-16T01:24:24.556Z,5.90
2023-02-16T01:26:51.635Z,5.90
2023-02-16T01:29:20.235Z,6.00
2023-02-16T01:31:48.429Z,5.90
2023-02-16T01:34:15.225Z,6.10
2023-02-16T01:36:46.577Z,6.00
2023-02-16T01:39:14.501Z,6.00
2023-02-16T01:41:44.578Z,6.00
2023-02-16T01:44:11.559Z,6.00
2023-02-16T01:46:44.459Z,6.00
2023-02-16T01:49:13.227Z,6.00
2023-02-16T01:51:52.221Z,6.00
2023-02-16T01:54:37.809Z,6.00
2023-02-16T01:57:23.685Z,6.00
2023-02-16T01:59:50.296Z,6.00
2023-02-16T02:02:18.282Z,6.00
2023-02-16T02:05:03.721Z,6.00
2023-02-16T02:07:48.792Z,6.10
2023-02-16T02:10:35.409Z,6.10
2023-02-16T02:13:02.155Z,6.00
2023-02-16T02:15:30.855Z,6.00
2023-02-16T02:17:58.084Z,6.00
2023-02-16T02:20:51.016Z,5.90
2023-02-16T02:23:33.756Z,6.00
2023-02-16T02:26:19.586Z,6.00
2023-02-16T02:29:21.699Z,6.00
2023-02-16T02:31:51.080Z,6.00
2023-02-16T02:34:33.225Z,6.00
2023-02-16T02:37:09.291Z,6.00
2023-02-16T02:39:56.653Z,6.00
2023-02-16T02:42:43.702Z,6.00
2023-02-16T02:45:24.250Z,6.00
2023-02-16T02:47:51.263Z,6.00
2023-02-16T02:50:31.994Z,6.00
2023-02-16T02:53:00.871Z,6.10
2023-02-16T02:55:48.279Z,6.10
2023-02-16T02:58:33.950Z,6.10
2023-02-16T03:01:00.858Z,6.10
2023-02-16T03:03:31.929Z,6.20
2023-02-16T03:05:58.675Z,6.20
2023-02-16T03:08:27.812Z,6.20
2023-02-16T03:11:16.766Z,6.20
2023-02-16T03:13:46.283Z,6.20
2023-02-16T03:16:27.900Z,6.20
2023-02-16T03:19:14.986Z,6.20
2023-02-16T03:22:00.585Z,6.10
2023-02-16T03:24:47.646Z,6.20
2023-02-16T03:27:35.799Z,6.30
2023-02-16T03:30:02.781Z,6.40
2023-02-16T03:32:30.221Z,6.30
2023-02-16T03:34:57.106Z,6.30
2023-02-16T03:37:24.293Z,6.40
2023-02-16T03:40:09.894Z,6.40
2023-02-16T03:42:36.579Z,6.40
2023-02-16T03:45:03.733Z,6.30
2023-02-16T03:47:31.532Z,6.40
2023-02-16T03:49:58.706Z,6.30
2023-02-16T03:52:25.616Z,6.30
2023-02-16T03:54:52.656Z,6.30
2023-02-16T03:57:19.743Z,6.20
2023-02-16T03:59:46.392Z,6.20
2023-02-16T04:02:13.441Z,6.30
2023-02-16T04:04:40.459Z,6.30
2023-02-16T04:07:07.488Z,6.20
2023-02-16T04:09:34.556Z,6.20
2023-02-16T04:12:20.092Z,6.30
2023-02-16T04:14:47.895Z,6.30
2023-02-16T04:17:14.968Z,6.40
2023-02-16T04:19:42.023Z,6.30
2023-02-16T04:22:09.026Z,6.40
2023-02-16T04:24:36.121Z,6.40
2023-02-16T04:27:03.128Z,6.40
2023-02-16T04:29:29.881Z,6.50
2023-02-16T04:31:57.849Z,6.60
2023-02-16T04:34:24.774Z,6.60
2023-02-16T04:36:51.727Z,6.60
2023-02-16T04:39:18.882Z,6.60
2023-02-16T04:41:45.898Z,6.60
2023-02-16T04:44:12.858Z,6.50
2023-02-16T04:46:39.504Z,6.50
2023-02-16T04:49:06.587Z,6.50
2023-02-16T04:51:34.464Z,6.60
2023-02-16T04:54:01.489Z,6.60
2023-02-16T04:56:28.509Z,6.60
2023-02-16T04:58:56.033Z,6.50
2023-02-16T05:01:23.702Z,6.50
2023-02-16T05:03:50.598Z,6.50
2023-02-16T05:06:18.504Z,6.50
2023-02-16T05:08:45.681Z,6.50
2023-02-16T05:11:31.239Z,6.60
2023-02-16T05:14:16.915Z,6.60
2023-02-16T05:16:44.509Z,6.60
2023-02-16T05:19:11.738Z,6.70
2023-02-16T05:21:38.816Z,6.80
2023-02-16T05:24:07.197Z,6.80
2023-02-16T05:26:34.417Z,6.80
2023-02-16T05:29:01.527Z,6.90
2023-02-16T05:31:28.733Z,7.00
2023-02-16T05:33:55.794Z,7.00
2023-02-16T05:36:23.371Z,7.00
2023-02-16T05:38:50.122Z,7.00
2023-02-16T05:41:24.115Z,6.90
2023-02-16T05:43:52.444Z,6.90
2023-02-16T05:46:20.207Z,6.80
2023-02-16T05:48:46.942Z,6.80
2023-02-16T05:51:14.281Z,6.70
2023-02-16T05:53:41.369Z,6.60
2023-02-16T05:56:08.553Z,6.60
2023-02-16T05:58:35.604Z,6.60
2023-02-16T06:01:02.469Z,6.70
2023-02-16T06:03:29.783Z,6.70
2023-02-16T06:05:57.798Z,6.70
2023-02-16T06:08:26.211Z,6.80
2023-02-16T06:10:53.870Z,6.80
2023-02-16T06:13:21.086Z,6.80
2023-02-16T06:15:48.279Z,6.80
2023-02-16T06:18:15.259Z,6.90
2023-02-16T06:20:42.241Z,6.80
2023-02-16T06:23:11.207Z,6.80
2023-02-16T06:25:38.137Z,6.80
2023-02-16T06:28:05.072Z,6.80
2023-02-16T06:30:32.982Z,7.00
2023-02-16T06:32:59.916Z,7.20
2023-02-16T06:35:32.551Z,7.30
2023-02-16T06:38:02.169Z,7.10
2023-02-16T06:40:28.916Z,7.20
2023-02-16T06:42:56.015Z,7.30
2023-02-16T06:45:25.003Z,7.40
2023-02-16T06:47:52.044Z,7.40
2023-02-16T06:50:19.065Z,7.40
2023-02-16T06:52:45.771Z,7.40
2023-02-16T06:55:13.583Z,7.40
2023-02-16T06:57:40.249Z,7.30
2023-02-16T07:02:54.364Z,7.40
2023-02-16T07:05:21.369Z,7.40
2023-02-16T07:07:48.400Z,7.50
2023-02-16T07:10:15.048Z,7.50
2023-02-16T07:12:42.140Z,7.40
2023-02-16T07:15:09.850Z,7.50
2023-02-16T07:17:36.687Z,7.60
2023-02-16T07:20:05.344Z,7.50
2023-02-16T07:22:32.768Z,7.50
2023-02-16T07:25:00.730Z,7.50
2023-02-16T07:27:27.665Z,7.60
2023-02-16T07:29:54.351Z,7.60
2023-02-16T07:32:21.348Z,7.70
2023-02-16T07:34:48.560Z,7.70
2023-02-16T07:37:15.538Z,7.70
2023-02-16T07:39:42.484Z,7.60
2023-02-16T07:42:09.590Z,7.80
2023-02-16T07:44:36.580Z,8.00
2023-02-16T07:47:03.219Z,8.00
2023-02-16T07:49:30.281Z,8.00
2023-02-16T07:51:57.320Z,7.90
2023-02-16T07:54:24.409Z,7.90
2023-02-16T07:56:51.463Z,7.80
2023-02-16T07:59:18.438Z,7.70
2023-02-16T08:01:45.125Z,7.70
2023-02-16T08:04:12.130Z,7.60
2023-02-16T08:06:39.623Z,7.60
2023-02-16T08:09:06.700Z,7.50
2023-02-16T08:11:33.714Z,7.60
2023-02-16T08:14:00.781Z,7.80
2023-02-16T08:16:28.962Z,8.00
2023-02-16T08:18:57.048Z,8.00
2023-02-16T08:21:25.111Z,8.00
2023-02-16T08:24:01.654Z,8.20
2023-02-16T08:26:29.955Z,8.20
2023-02-16T08:28:57.818Z,8.20
2023-02-16T08:31:30.980Z,8.30
2023-02-16T08:33:59.293Z,8.40
2023-02-16T08:36:29.483Z,8.40
2023-02-16T08:38:56.210Z,8.50
2023-02-16T08:41:24.104Z,8.30
2023-02-16T08:43:51.269Z,8.40
2023-02-16T08:46:18.338Z,8.30
2023-02-16T08:48:45.347Z,8.10
2023-02-16T08:51:17.565Z,8.10
2023-02-16T08:53:45.358Z,8.10
2023-02-16T08:56:14.287Z,8.20
2023-02-16T08:58:40.964Z,8.20
2023-02-16T09:01:08.279Z,8.00
2023-02-16T09:03:36.073Z,7.90
2023-02-16T09:06:04.202Z,7.80
2023-02-16T09:08:31.224Z,7.80
2023-02-16T09:11:01.810Z,7.80
2023-02-16T09:13:28.845Z,7.80
2023-02-16T09:16:01.290Z,7.90
2023-02-16T09:18:28.246Z,7.80
2023-02-16T09:20:55.284Z,7.70
2023-02-16T09:23:22.018Z,7.70
2023-02-16T09:25:48.993Z,7.80
2023-02-16T09:28:16.029Z,7.90
2023-02-16T09:30:42.742Z,8.00
2023-02-16T09:33:09.960Z,8.00
2023-02-16T09:35:38.533Z,8.10
2023-02-16T09:38:05.531Z,8.10
2023-02-16T09:40:32.571Z,8.20
2023-02-16T09:43:02.817Z,8.20
2023-02-16T09:45:35.113Z,8.20
2023-02-16T09:48:02.169Z,8.20
2023-02-16T09:50:53.090Z,8.20
2023-02-16T09:53:30.441Z,8.30
2023-02-16T09:56:20.121Z,8.60
2023-02-16T09:58:53.532Z,8.90
2023-02-16T10:01:34.686Z,9.10
2023-02-16T10:04:16.681Z,9.20
2023-02-16T10:06:43.925Z,9.20
2023-02-16T10:09:16.467Z,9.20
2023-02-16T10:11:49.614Z,9.30
2023-02-16T10:14:16.932Z,9.70
2023-02-16T10:17:03.826Z,9.90
2023-02-16T10:19:33.892Z,10.00
2023-02-16T10:22:03.366Z,10.00
2023-02-16T10:24:31.677Z,10.00
2023-02-16T10:27:02.336Z,10.20
2023-02-16T10:29:29.004Z,10.10
2023-02-16T10:32:15.159Z,10.00
2023-02-16T10:34:49.979Z,10.20
2023-02-16T10:37:28.203Z,10.10
2023-02-16T10:40:00.945Z,10.00
2023-02-16T10:42:46.414Z,9.90
2023-02-16T10:45:32.007Z,10.10
2023-02-16T10:47:59.602Z,10.30
2023-02-16T10:50:52.891Z,10.50
2023-02-16T10:53:21.960Z,10.70
2023-02-16T10:55:48.795Z,10.80
2023-02-16T10:58:20.735Z,10.80
2023-02-16T11:00:57.899Z,11.00
2023-02-16T11:03:29.093Z,11.10
2023-02-16T11:05:56.070Z,11.10
2023-02-16T11:08:25.605Z,11.10
2023-02-16T11:10:53.568Z,11.20
2023-02-16T11:13:23.453Z,11.30
2023-02-16T11:15:52.034Z,11.30
2023-02-16T11:18:39.123Z,11.20
2023-02-16T11:21:07.533Z,11.40
2023-02-16T11:23:37.357Z,11.80
2023-02-16T11:26:26.027Z,12.20
2023-02-16T11:28:53.363Z,12.30
2023-02-16T11:31:29.153Z,12.40
2023-02-16T11:34:05.953Z,12.50
2023-02-16T11:36:38.352Z,12.80
2023-02-16T11:39:05.370Z,12.90
2023-02-16T11:41:33.677Z,13.00
2023-02-16T11:44:01.943Z,13.20
2023-02-16T11:46:29.896Z,13.20
2023-02-16T11:48:56.851Z,13.40
2023-02-16T11:51:32.276Z,13.60
2023-02-16T11:54:04.241Z,14.50
2023-02-16T11:56:33.645Z,14.40
2023-02-16T11:59:15.695Z,14.80
2023-02-16T12:01:42.820Z,15.20
2023-02-16T12:04:22.312Z,15.50
2023-02-16T12:07:01.450Z,15.80
2023-02-16T12:09:37.453Z,16.60
2023-02-16T12:12:13.528Z,16.80
2023-02-16T12:15:12.713Z,16.30
2023-02-16T12:17:59.024Z,16.40
2023-02-16T12:20:28.752Z,16.80
2023-02-16T12:23:01.286Z,16.50
2023-02-16T12:25:38.091Z,15.80
2023-02-16T12:28:17.285Z,15.40
2023-02-16T12:30:44.813Z,14.80
2023-02-16T12:33:32.319Z,14.40
2023-02-16T12:36:14.536Z,14.50
2023-02-16T12:39:01.790Z,14.90
2023-02-16T12:41:34.630Z,14.90
2023-02-16T12:44:08.005Z,14.80
2023-02-16T12:46:42.059Z,14.50
2023-02-16T12:49:19.224Z,14.60
2023-02-16T12:51:48.825Z,14.60
2023-02-16T12:54:25.173Z,14.80
2023-02-16T12:57:04.638Z,15.00
2023-02-16T12:59:37.718Z,14.90
2023-02-16T13:02:09.592Z,14.60
2023-02-16T13:04:55.563Z,14.70
2023-02-16T13:07:28.859Z,14.70
2023-02-16T13:09:57.580Z,15.00
2023-02-16T13:12:24.565Z,15.30
2023-02-16T13:14:56.715Z,15.30
2023-02-16T13:17:39.538Z,15.50
2023-02-16T13:20:12.156Z,15.10
2023-02-16T13:22:46.955Z,14.70
2023-02-16T13:25:23.870Z,14.50
2023-02-16T13:27:50.716Z,14.40
2023-02-16T13:30:20.813Z,14.30
2023-02-16T13:33:04.209Z,14.30
2023-02-16T13:35:40.748Z,14.40
2023-02-16T13:38:37.097Z,14.50
2023-02-16T13:41:09.327Z,14.50
2023-02-16T13:43:41.060Z,14.60
2023-02-16T13:46:13.248Z,14.40
2023-02-16T13:48:46.409Z,14.30
2023-02-16T13:51:23.432Z,14.10
2023-02-16T13:53:52.946Z,13.90
2023-02-16T13:56:31.867Z,13.90
2023-02-16T13:59:00.001Z,14.00
2023-02-16T14:01:26.804Z,14.20
2023-02-16T14:03:54.380Z,14.20
2023-02-16T14:06:27.708Z,14.20
2023-02-16T14:09:13.121Z,14.30
2023-02-16T14:11:59.383Z,14.40
2023-02-16T14:14:27.672Z,14.80
2023-02-16T14:16:54.656Z,15.30
2023-02-16T14:19:23.762Z,15.20
2023-02-16T14:21:51.652Z,14.80
2023-02-16T14:24:33.278Z,14.40
2023-02-16T14:27:01.421Z,14.20
2023-02-16T14:29:47.372Z,14.20
2023-02-16T14:32:22.443Z,14.00
2023-02-16T14:34:54.847Z,13.80
2023-02-16T14:37:21.998Z,13.70
2023-02-16T14:40:06.884Z,13.60
2023-02-16T14:42:35.794Z,13.60
2023-02-16T14:45:11.954Z,13.70
2023-02-16T14:47:58.994Z,13.60
2023-02-16T14:50:26.488Z,13.50
2023-02-16T14:52:59.737Z,13.50
2023-02-16T14:55:26.929Z,13.40
2023-02-16T14:57:58.029Z,13.40
2023-02-16T15:00:29.061Z,13.30
2023-02-16T15:03:00.282Z,13.20
2023-02-16T15:05:29.684Z,12.80
2023-02-16T15:08:03.090Z,12.90
2023-02-16T15:10:30.527Z,13.00
2023-02-16T15:12:57.765Z,13.00
2023-02-16T15:15:43.781Z,12.90
2023-02-16T15:18:21.833Z,13.10
2023-02-16T15:20:51.213Z,13.10
2023-02-16T15:23:17.979Z,13.20
2023-02-16T15:25:52.293Z,13.20
2023-02-16T15:28:23.697Z,13.10
2023-02-16T15:30:52.147Z,13.00
2023-02-16T15:33:22.932Z,12.80
2023-02-16T15:36:05.706Z,12.80
2023-02-16T15:38:33.796Z,12.70
2023-02-16T15:41:13.151Z,12.60
2023-02-16T15:43:50.030Z,12.70
2023-02-16T15:46:23.232Z,12.80
2023-02-16T15:48:50.918Z,12.90
2023-02-16T15:51:17.703Z,12.80
2023-02-16T15:53:52.669Z,12.90
2023-02-16T15:56:38.226Z,12.90
2023-02-16T15:59:26.266Z,12.80
2023-02-16T16:01:57.579Z,12.70
2023-02-16T16:04:25.474Z,12.60
2023-02-16T16:06:55.846Z,12.60
2023-02-16T16:09:26.237Z,12.50
2023-02-16T16:11:57.709Z,12.40
2023-02-16T16:14:25.539Z,12.30
2023-02-16T16:16:58.039Z,12.20
2023-02-16T16:19:34.943Z,12.20
2023-02-16T16:22:06.969Z,12.30
2023-02-16T16:24:42.603Z,12.30
2023-02-16T16:27:10.440Z,12.40
2023-02-16T16:29:45.137Z,12.30
2023-02-16T16:32:23.789Z,12.30
2023-02-16T16:34:51.069Z,12.30
2023-02-16T16:37:21.061Z,12.20
2023-02-16T16:39:58.648Z,12.10
2023-02-16T16:42:25.920Z,12.20
2023-02-16T16:45:07.298Z,12.10
2023-02-16T16:47:35.235Z,12.10
2023-02-16T16:50:07.424Z,12.20
2023-02-16T16:52:36.739Z,12.20
2023-02-16T16:55:21.793Z,12.20
2023-02-16T16:58:09.128Z,12.30
2023-02-16T17:00:38.343Z,12.30
2023-02-16T17:03:06.932Z,12.20
2023-02-16T17:05:34.539Z,12.30
2023-02-16T17:08:02.436Z,12.30
2023-02-16T17:10:29.593Z,12.30
2023-02-16T17:12:58.077Z,12.20
2023-02-16T17:15:28.837Z,12.20
2023-02-16T17:17:56.265Z,12.10
2023-02-16T17:20:23.077Z,12.10
2023-02-16T17:22:50.121Z,12.00
2023-02-16T17:25:17.479Z,12.10
2023-02-16T17:27:46.327Z,12.00
2023-02-16T17:30:13.308Z,11.90
2023-02-16T17:32:40.299Z,11.90
2023-02-16T17:35:07.440Z,11.90
2023-02-16T17:37:35.589Z,11.90
2023-02-16T17:40:04.670Z,11.90
2023-02-16T17:42:31.525Z,11.80
2023-02-16T17:44:58.455Z,11.60
2023-02-16T17:47:25.488Z,11.60
2023-02-16T17:49:52.599Z,11.50
2023-02-16T17:52:19.679Z,11.50
2023-02-16T17:54:47.398Z,11.50
2023-02-16T17:57:15.281Z,11.50
2023-02-16T17:59:42.209Z,11.40
2023-02-16T18:02:13.061Z,11.20
2023-02-16T18:04:42.624Z,11.10
2023-02-16T18:07:14.513Z,11.10
2023-02-16T18:09:41.410Z,11.10
2023-02-16T18:12:08.673Z,11.20
2023-02-16T18:14:38.421Z,11.20
2023-02-16T18:17:06.807Z,11.20
2023-02-16T18:19:34.701Z,11.20
2023-02-16T18:22:01.908Z,11.30
2023-02-16T18:24:29.627Z,11.30
2023-02-16T18:26:56.613Z,11.20
2023-02-16T18:29:23.185Z,11.20
2023-02-16T18:31:49.985Z,11.30
2023-02-16T18:34:16.947Z,11.20
2023-02-16T18:36:45.644Z,11.20
2023-02-16T18:39:12.286Z,11.30
2023-02-16T18:41:39.024Z,11.30
2023-02-16T18:44:06.229Z,11.30
2023-02-16T18:46:33.059Z,11.20
2023-02-16T18:49:00.102Z,11.20
2023-02-16T18:51:31.804Z,11.10
2023-02-16T18:54:00.794Z,11.10
2023-02-16T18:56:27.903Z,11.10
2023-02-16T18:58:56.893Z,11.10
2023-02-16T19:01:30.939Z,11.10
2023-02-16T19:03:58.549Z,11.20
2023-02-16T19:06:27.886Z,11.00
2023-02-16T19:08:56.228Z,11.00
2023-02-16T19:11:23.219Z,10.80
2023-02-16T19:13:50.296Z,10.80
2023-02-16T19:16:17.432Z,10.80
2023-02-16T19:18:45.241Z,10.90
2023-02-16T19:21:13.376Z,11.00
2023-02-16T19:23:40.383Z,10.90
2023-02-16T19:26:11.258Z,10.90
2023-02-16T19:28:40.719Z,10.90
2023-02-16T19:31:09.442Z,10.90
2023-02-16T19:33:36.452Z,11.00
2023-02-16T19:36:06.720Z,11.00
2023-02-16T19:38:33.823Z,11.10
2023-02-16T19:41:08.745Z,11.00
2023-02-16T19:43:35.700Z,11.10
2023-02-16T19:46:04.274Z,11.10
2023-02-16T19:48:33.560Z,11.00
2023-02-16T19:51:04.685Z,11.10
2023-02-16T19:53:34.426Z,11.10
2023-02-16T19:56:03.571Z,11.20
2023-02-16T19:58:30.708Z,11.30
2023-02-16T20:00:57.368Z,11.30
2023-02-16T20:03:24.388Z,11.20
2023-02-16T20:05:51.453Z,11.30
2023-02-16T20:08:18.487Z,11.30
2023-02-16T20:10:45.514Z,11.30
2023-02-16T20:13:12.555Z,11.40
2023-02-16T20:15:40.479Z,11.40
2023-02-16T20:18:08.613Z,11.30
2023-02-16T20:20:35.959Z,11.30
2023-02-16T20:23:02.800Z,11.30
2023-02-16T20:25:29.412Z,11.50
2023-02-16T20:27:57.995Z,11.50
2023-02-16T20:30:26.660Z,11.60
2023-02-16T20:32:53.723Z,11.60
2023-02-16T20:35:24.589Z,11.60
2023-02-16T20:37:51.257Z,11.60
2023-02-16T20:40:20.920Z,11.60
2023-02-16T20:42:47.925Z,11.60
2023-02-16T20:45:14.850Z,11.60
2023-02-16T20:47:42.015Z,11.50
2023-02-16T20:50:09.577Z,11.30
2023-02-16T20:52:36.781Z,11.30
2023-02-16T20:55:04.857Z,11.20
2023-02-16T20:57:34.590Z,11.30
2023-02-16T21:00:01.887Z,11.30
2023-02-16T21:02:31.013Z,11.40
2023-02-16T21:04:58.285Z,11.40
2023-02-16T21:07:25.349Z,11.40
2023-02-16T21:09:54.509Z,11.50
2023-02-16T21:12:21.462Z,11.40
2023-02-16T21:14:48.817Z,11.40
2023-02-16T21:17:16.394Z,11.40
2023-02-16T21:19:43.645Z,11.40
2023-02-16T21:22:10.638Z,11.50
2023-02-16T21:24:40.940Z,11.40
2023-02-16T21:27:08.515Z,11.40
2023-02-16T21:29:35.719Z,11.50
2023-02-16T21:32:02.413Z,11.40
2023-02-16T21:34:29.346Z,11.40
2023-02-16T21:36:58.005Z,11.40
2023-02-16T21:39:45.517Z,11.30
2023-02-16T21:42:23.229Z,11.30
2023-02-16T21:45:11.066Z,11.30
2023-02-16T21:47:57.213Z,11.30
2023-02-16T21:50:30.985Z,11.30
2023-02-16T21:53:04.547Z,11.30
2023-02-16T21:55:50.109Z,11.30
2023-02-16T21:58:16.949Z,11.30
2023-02-16T22:00:43.930Z,11.40
2023-02-16T22:03:12.414Z,11.30
2023-02-16T22:05:45.097Z,11.40
2023-02-16T22:11:24.247Z,11.40
2023-02-16T22:13:55.045Z,11.20
2023-02-16T22:16:23.631Z,11.20
2023-02-16T22:18:55.184Z,11.10
2023-02-16T22:21:22.137Z,11.20
2023-02-16T22:23:49.162Z,11.30
2023-02-16T22:26:28.058Z,11.20
2023-02-16T22:28:56.106Z,11.30
2023-02-16T22:31:24.426Z,11.20
2023-02-16T22:33:57.464Z,11.20
2023-02-16T22:36:27.405Z,11.20
2023-02-16T22:38:54.393Z,11.20
2023-02-16T22:41:22.330Z,11.30
2023-02-16T22:43:53.009Z,11.30
2023-02-16T22:46:20.141Z,11.40
2023-02-16T22:48:49.423Z,11.40
2023-02-16T22:51:18.252Z,11.40
2023-02-16T22:53:45.268Z,11.30
2023-02-16T22:56:19.006Z,11.30
2023-02-16T22:58:50.025Z,11.20
2023-02-16T23:01:19.338Z,11.20
2023-02-16T23:03:49.309Z,11.20
2023-02-16T23:06:19.148Z,11.20
2023-02-16T23:08:46.191Z,11.20
2023-02-16T23:11:13.063Z,11.20
2023-02-16T23:13:40.081Z,11.30
2023-02-16T23:16:08.611Z,11.30
2023-02-16T23:18:35.454Z,11.30
2023-02-16T23:21:09.814Z,11.30
2023-02-16T23:23:37.650Z,11.30
2023-02-16T23:26:10.290Z,11.40
2023-02-16T23:28:38.432Z,11.40
2023-02-16T23:31:07.839Z,11.30
2023-02-16T23:33:35.802Z,11.30
2023-02-16T23:36:02.904Z,11.30
2023-02-16T23:38:29.832Z,11.30
2023-02-16T23:40:58.686Z,11.40
2023-02-16T23:43:33.734Z,11.50
2023-02-16T23:46:01.546Z,11.60
2023-02-16T23:48:29.663Z,11.50
2023-02-16T23:50:57.071Z,11.50
2023-02-16T23:53:25.372Z,11.50
2023-02-16T23:56:05.460Z,11.60
2023-02-16T23:58:35.128Z,11.60
